sensor_id;sensor_type;location;lat;lon;timestamp;temperature;humidity
12130;DHT22;6128;59.340;18.040;2023-07-09T00:02:13;18.70;99.90
12130;DHT22;6128;59.340;18.040;2023-07-09T00:04:41;18.70;99.90
12130;DHT22;6128;59.340;18.040;2023-07-09T00:07:15;18.70;99.90
12130;DHT22;6128;59.340;18.040;2023-07-09T00:09:44;18.60;99.90
12130;DHT22;6128;59.340;18.040;2023-07-09T00:12:15;18.60;99.90
12130;DHT22;6128;59.340;18.040;2023-07-09T00:14:43;18.60;99.90
12130;DHT22;6128;59.340;18.040;2023-07-09T00:17:17;18.60;99.90
12130;DHT22;6128;59.340;18.040;2023-07-09T00:19:46;18.60;99.90
12130;DHT22;6128;59.340;18.040;2023-07-09T00:22:15;18.50;99.90
12130;DHT22;6128;59.340;18.040;2023-07-09T00:24:47;18.50;99.90
12130;DHT22;6128;59.340;18.040;2023-07-09T00:27:19;18.50;99.90
12130;DHT22;6128;59.340;18.040;2023-07-09T00:29:47;18.50;99.90
12130;DHT22;6128;59.340;18.040;2023-07-09T00:32:15;18.40;99.90
12130;DHT22;6128;59.340;18.040;2023-07-09T00:34:43;18.40;99.90
12130;DHT22;6128;59.340;18.040;2023-07-09T00:37:14;18.30;99.90
12130;DHT22;6128;59.340;18.040;2023-07-09T00:39:42;18.30;99.90
12130;DHT22;6128;59.340;18.040;2023-07-09T00:42:13;18.20;99.90
12130;DHT22;6128;59.340;18.040;2023-07-09T00:44:45;18.20;99.90
12130;DHT22;6128;59.340;18.040;2023-07-09T00:50:06;18.20;99.90
12130;DHT22;6128;59.340;18.040;2023-07-09T00:52:39;18.10;99.90
12130;DHT22;6128;59.340;18.040;2023-07-09T00:55:13;18.10;99.90
12130;DHT22;6128;59.340;18.040;2023-07-09T00:57:43;18.10;99.90
12130;DHT22;6128;59.340;18.040;2023-07-09T01:00:17;18.10;99.90
12130;DHT22;6128;59.340;18.040;2023-07-09T01:02:47;18.00;99.90
12130;DHT22;6128;59.340;18.040;2023-07-09T01:05:15;18.00;99.90
12130;DHT22;6128;59.340;18.040;2023-07-09T01:07:45;18.00;99.90
12130;DHT22;6128;59.340;18.040;2023-07-09T01:10:14;17.90;99.90
12130;DHT22;6128;59.340;18.040;2023-07-09T01:12:42;17.90;99.90
12130;DHT22;6128;59.340;18.040;2023-07-09T01:15:09;17.90;99.90
12130;DHT22;6128;59.340;18.040;2023-07-09T01:17:39;17.90;99.90
12130;DHT22;6128;59.340;18.040;2023-07-09T01:20:15;17.80;99.90
12130;DHT22;6128;59.340;18.040;2023-07-09T01:22:49;17.80;99.90
12130;DHT22;6128;59.340;18.040;2023-07-09T01:25:16;17.80;99.90
12130;DHT22;6128;59.340;18.040;2023-07-09T01:27:46;17.70;99.90
12130;DHT22;6128;59.340;18.040;2023-07-09T01:30:17;17.70;99.90
12130;DHT22;6128;59.340;18.040;2023-07-09T01:32:48;17.70;99.90
12130;DHT22;6128;59.340;18.040;2023-07-09T01:35:18;17.60;99.90
12130;DHT22;6128;59.340;18.040;2023-07-09T01:37:48;17.60;99.90
12130;DHT22;6128;59.340;18.040;2023-07-09T01:40:17;17.50;99.90
12130;DHT22;6128;59.340;18.040;2023-07-09T01:42:46;17.50;99.90
12130;DHT22;6128;59.340;18.040;2023-07-09T01:45:13;17.50;99.90
12130;DHT22;6128;59.340;18.040;2023-07-09T01:47:41;17.50;99.90
12130;DHT22;6128;59.340;18.040;2023-07-09T01:50:10;17.50;99.90
12130;DHT22;6128;59.340;18.040;2023-07-09T01:52:40;17.50;99.90
12130;DHT22;6128;59.340;18.040;2023-07-09T01:55:11;17.50;99.90
12130;DHT22;6128;59.340;18.040;2023-07-09T01:57:38;17.50;99.90
12130;DHT22;6128;59.340;18.040;2023-07-09T02:00:08;17.50;99.90
12130;DHT22;6128;59.340;18.040;2023-07-09T02:02:37;17.50;99.90
12130;DHT22;6128;59.340;18.040;2023-07-09T02:05:06;17.40;99.90
12130;DHT22;6128;59.340;18.040;2023-07-09T02:07:33;17.50;99.90
12130;DHT22;6128;59.340;18.040;2023-07-09T02:10:00;17.50;99.90
12130;DHT22;6128;59.340;18.040;2023-07-09T02:12:29;17.50;99.90
12130;DHT22;6128;59.340;18.040;2023-07-09T02:14:56;17.50;99.90
12130;DHT22;6128;59.340;18.040;2023-07-09T02:17:23;17.50;99.90
12130;DHT22;6128;59.340;18.040;2023-07-09T02:19:51;17.50;99.90
12130;DHT22;6128;59.340;18.040;2023-07-09T02:22:18;17.60;99.90
12130;DHT22;6128;59.340;18.040;2023-07-09T02:24:46;17.60;99.90
12130;DHT22;6128;59.340;18.040;2023-07-09T02:27:16;17.60;99.90
12130;DHT22;6128;59.340;18.040;2023-07-09T02:29:45;17.60;99.90
12130;DHT22;6128;59.340;18.040;2023-07-09T02:32:17;17.60;99.90
12130;DHT22;6128;59.340;18.040;2023-07-09T02:34:45;17.60;99.90
12130;DHT22;6128;59.340;18.040;2023-07-09T02:37:15;17.60;99.90
12130;DHT22;6128;59.340;18.040;2023-07-09T02:39:44;17.60;99.90
12130;DHT22;6128;59.340;18.040;2023-07-09T02:42:13;17.70;99.90
12130;DHT22;6128;59.340;18.040;2023-07-09T02:44:41;17.70;99.90
12130;DHT22;6128;59.340;18.040;2023-07-09T02:47:10;17.70;99.90
12130;DHT22;6128;59.340;18.040;2023-07-09T02:49:37;17.70;99.90
12130;DHT22;6128;59.340;18.040;2023-07-09T02:52:05;17.70;99.90
12130;DHT22;6128;59.340;18.040;2023-07-09T02:54:33;17.70;99.90
12130;DHT22;6128;59.340;18.040;2023-07-09T02:57:00;17.70;99.90
12130;DHT22;6128;59.340;18.040;2023-07-09T02:59:27;17.70;99.90
12130;DHT22;6128;59.340;18.040;2023-07-09T03:01:55;17.60;99.90
12130;DHT22;6128;59.340;18.040;2023-07-09T03:04:24;17.50;99.90
12130;DHT22;6128;59.340;18.040;2023-07-09T03:06:51;17.40;99.90
12130;DHT22;6128;59.340;18.040;2023-07-09T03:09:18;17.40;99.90
12130;DHT22;6128;59.340;18.040;2023-07-09T03:11:46;17.40;99.90
12130;DHT22;6128;59.340;18.040;2023-07-09T03:14:15;17.30;99.90
12130;DHT22;6128;59.340;18.040;2023-07-09T03:16:42;17.30;99.90
12130;DHT22;6128;59.340;18.040;2023-07-09T03:19:09;17.30;99.90
12130;DHT22;6128;59.340;18.040;2023-07-09T03:21:41;17.20;99.90
12130;DHT22;6128;59.340;18.040;2023-07-09T03:24:08;17.20;99.90
12130;DHT22;6128;59.340;18.040;2023-07-09T03:26:35;17.20;99.90
12130;DHT22;6128;59.340;18.040;2023-07-09T03:29:02;17.20;99.90
12130;DHT22;6128;59.340;18.040;2023-07-09T03:31:30;17.10;99.90
12130;DHT22;6128;59.340;18.040;2023-07-09T03:34:00;17.10;99.90
12130;DHT22;6128;59.340;18.040;2023-07-09T03:36:28;17.10;99.90
12130;DHT22;6128;59.340;18.040;2023-07-09T03:38:59;17.20;99.90
12130;DHT22;6128;59.340;18.040;2023-07-09T03:41:26;17.20;99.90
12130;DHT22;6128;59.340;18.040;2023-07-09T03:43:54;17.30;99.90
12130;DHT22;6128;59.340;18.040;2023-07-09T03:46:21;17.20;99.90
12130;DHT22;6128;59.340;18.040;2023-07-09T03:48:48;17.30;99.90
12130;DHT22;6128;59.340;18.040;2023-07-09T03:51:19;17.30;99.90
12130;DHT22;6128;59.340;18.040;2023-07-09T03:53:47;17.40;99.90
12130;DHT22;6128;59.340;18.040;2023-07-09T03:56:16;17.40;99.90
12130;DHT22;6128;59.340;18.040;2023-07-09T03:58:43;17.50;99.90
12130;DHT22;6128;59.340;18.040;2023-07-09T04:01:10;17.50;99.90
12130;DHT22;6128;59.340;18.040;2023-07-09T04:03:37;17.50;99.90
12130;DHT22;6128;59.340;18.040;2023-07-09T04:06:04;17.60;99.90
12130;DHT22;6128;59.340;18.040;2023-07-09T04:08:31;17.60;99.90
12130;DHT22;6128;59.340;18.040;2023-07-09T04:10:59;17.60;99.90
12130;DHT22;6128;59.340;18.040;2023-07-09T04:13:28;17.70;99.90
12130;DHT22;6128;59.340;18.040;2023-07-09T04:15:55;17.70;99.90
12130;DHT22;6128;59.340;18.040;2023-07-09T04:18:23;17.70;99.90
12130;DHT22;6128;59.340;18.040;2023-07-09T04:20:50;17.80;99.90
12130;DHT22;6128;59.340;18.040;2023-07-09T04:23:18;17.80;99.90
12130;DHT22;6128;59.340;18.040;2023-07-09T04:25:45;17.90;99.90
12130;DHT22;6128;59.340;18.040;2023-07-09T04:28:12;17.90;99.90
12130;DHT22;6128;59.340;18.040;2023-07-09T04:30:47;18.00;99.90
12130;DHT22;6128;59.340;18.040;2023-07-09T04:33:14;18.00;99.90
12130;DHT22;6128;59.340;18.040;2023-07-09T04:35:44;18.10;99.90
12130;DHT22;6128;59.340;18.040;2023-07-09T04:38:11;18.10;99.90
12130;DHT22;6128;59.340;18.040;2023-07-09T04:40:39;18.00;99.90
12130;DHT22;6128;59.340;18.040;2023-07-09T04:43:06;18.10;99.90
12130;DHT22;6128;59.340;18.040;2023-07-09T04:45:33;18.10;99.90
12130;DHT22;6128;59.340;18.040;2023-07-09T04:48:02;18.20;99.90
12130;DHT22;6128;59.340;18.040;2023-07-09T04:50:29;18.20;99.90
12130;DHT22;6128;59.340;18.040;2023-07-09T04:52:56;18.30;99.90
12130;DHT22;6128;59.340;18.040;2023-07-09T04:55:23;18.30;99.90
12130;DHT22;6128;59.340;18.040;2023-07-09T04:57:52;18.30;99.90
12130;DHT22;6128;59.340;18.040;2023-07-09T05:00:19;18.30;99.90
12130;DHT22;6128;59.340;18.040;2023-07-09T05:02:46;18.30;99.90
12130;DHT22;6128;59.340;18.040;2023-07-09T05:05:15;18.30;99.90
12130;DHT22;6128;59.340;18.040;2023-07-09T05:07:42;18.40;99.90
12130;DHT22;6128;59.340;18.040;2023-07-09T05:10:09;18.50;99.90
12130;DHT22;6128;59.340;18.040;2023-07-09T05:12:47;18.60;99.90
12130;DHT22;6128;59.340;18.040;2023-07-09T05:15:16;18.60;99.90
12130;DHT22;6128;59.340;18.040;2023-07-09T05:17:44;18.50;99.90
12130;DHT22;6128;59.340;18.040;2023-07-09T05:20:12;18.50;99.90
12130;DHT22;6128;59.340;18.040;2023-07-09T05:22:40;18.40;99.90
12130;DHT22;6128;59.340;18.040;2023-07-09T05:25:08;18.40;99.90
12130;DHT22;6128;59.340;18.040;2023-07-09T05:27:35;18.50;99.90
12130;DHT22;6128;59.340;18.040;2023-07-09T05:30:03;18.60;99.90
12130;DHT22;6128;59.340;18.040;2023-07-09T05:32:30;18.70;99.90
12130;DHT22;6128;59.340;18.040;2023-07-09T05:34:57;18.70;99.90
12130;DHT22;6128;59.340;18.040;2023-07-09T05:37:25;18.90;99.90
12130;DHT22;6128;59.340;18.040;2023-07-09T05:39:54;19.00;99.90
12130;DHT22;6128;59.340;18.040;2023-07-09T05:42:21;19.10;99.90
12130;DHT22;6128;59.340;18.040;2023-07-09T05:44:49;19.10;99.90
12130;DHT22;6128;59.340;18.040;2023-07-09T05:47:16;19.10;99.90
12130;DHT22;6128;59.340;18.040;2023-07-09T05:49:43;19.20;99.90
12130;DHT22;6128;59.340;18.040;2023-07-09T05:52:15;19.30;99.90
12130;DHT22;6128;59.340;18.040;2023-07-09T05:54:42;19.70;99.90
12130;DHT22;6128;59.340;18.040;2023-07-09T05:57:10;20.50;99.90
12130;DHT22;6128;59.340;18.040;2023-07-09T05:59:38;21.20;99.90
12130;DHT22;6128;59.340;18.040;2023-07-09T06:02:09;21.90;99.90
12130;DHT22;6128;59.340;18.040;2023-07-09T06:04:39;22.70;99.90
12130;DHT22;6128;59.340;18.040;2023-07-09T06:07:07;23.70;99.90
12130;DHT22;6128;59.340;18.040;2023-07-09T06:09:35;24.10;99.90
12130;DHT22;6128;59.340;18.040;2023-07-09T06:12:02;25.10;99.90
12130;DHT22;6128;59.340;18.040;2023-07-09T06:14:32;26.20;99.90
12130;DHT22;6128;59.340;18.040;2023-07-09T06:17:00;26.60;99.90
12130;DHT22;6128;59.340;18.040;2023-07-09T06:19:27;26.80;99.90
12130;DHT22;6128;59.340;18.040;2023-07-09T06:21:54;27.40;99.90
12130;DHT22;6128;59.340;18.040;2023-07-09T06:24:22;27.90;99.90
12130;DHT22;6128;59.340;18.040;2023-07-09T06:26:49;28.20;99.90
12130;DHT22;6128;59.340;18.040;2023-07-09T06:29:16;28.50;99.90
12130;DHT22;6128;59.340;18.040;2023-07-09T06:31:45;28.70;99.90
12130;DHT22;6128;59.340;18.040;2023-07-09T06:34:12;28.70;99.90
12130;DHT22;6128;59.340;18.040;2023-07-09T06:36:39;28.80;99.90
12130;DHT22;6128;59.340;18.040;2023-07-09T06:39:09;28.80;99.90
12130;DHT22;6128;59.340;18.040;2023-07-09T06:41:36;27.90;99.90
12130;DHT22;6128;59.340;18.040;2023-07-09T06:44:05;28.10;99.90
12130;DHT22;6128;59.340;18.040;2023-07-09T06:46:32;27.60;99.90
12130;DHT22;6128;59.340;18.040;2023-07-09T06:49:01;27.70;99.90
12130;DHT22;6128;59.340;18.040;2023-07-09T06:51:31;27.90;99.90
12130;DHT22;6128;59.340;18.040;2023-07-09T06:53:58;28.50;99.90
12130;DHT22;6128;59.340;18.040;2023-07-09T06:56:25;29.10;99.90
12130;DHT22;6128;59.340;18.040;2023-07-09T06:58:54;29.50;99.90
12130;DHT22;6128;59.340;18.040;2023-07-09T07:01:24;30.10;99.90
12130;DHT22;6128;59.340;18.040;2023-07-09T07:03:51;31.00;99.90
12130;DHT22;6128;59.340;18.040;2023-07-09T07:06:20;31.90;99.90
12130;DHT22;6128;59.340;18.040;2023-07-09T07:08:47;32.50;99.90
12130;DHT22;6128;59.340;18.040;2023-07-09T07:11:15;32.70;99.90
12130;DHT22;6128;59.340;18.040;2023-07-09T07:13:43;32.60;99.90
12130;DHT22;6128;59.340;18.040;2023-07-09T07:16:12;32.70;99.90
12130;DHT22;6128;59.340;18.040;2023-07-09T07:18:39;32.40;99.90
12130;DHT22;6128;59.340;18.040;2023-07-09T07:21:06;32.30;99.80
12130;DHT22;6128;59.340;18.040;2023-07-09T07:23:35;31.70;99.70
12130;DHT22;6128;59.340;18.040;2023-07-09T07:26:02;32.00;99.20
12130;DHT22;6128;59.340;18.040;2023-07-09T07:28:30;32.00;98.70
12130;DHT22;6128;59.340;18.040;2023-07-09T07:30:59;32.50;97.90
12130;DHT22;6128;59.340;18.040;2023-07-09T07:33:26;32.90;97.30
12130;DHT22;6128;59.340;18.040;2023-07-09T07:35:53;32.60;96.60
12130;DHT22;6128;59.340;18.040;2023-07-09T07:38:21;32.30;96.30
12130;DHT22;6128;59.340;18.040;2023-07-09T07:40:49;32.20;95.80
12130;DHT22;6128;59.340;18.040;2023-07-09T07:43:16;31.80;95.30
12130;DHT22;6128;59.340;18.040;2023-07-09T07:45:44;31.40;94.80
12130;DHT22;6128;59.340;18.040;2023-07-09T07:48:11;31.50;94.40
12130;DHT22;6128;59.340;18.040;2023-07-09T07:50:39;31.10;94.00
12130;DHT22;6128;59.340;18.040;2023-07-09T07:53:07;29.80;93.60
12130;DHT22;6128;59.340;18.040;2023-07-09T07:55:34;28.70;93.20
12130;DHT22;6128;59.340;18.040;2023-07-09T07:58:05;28.10;93.00
12130;DHT22;6128;59.340;18.040;2023-07-09T08:00:39;28.20;92.80
12130;DHT22;6128;59.340;18.040;2023-07-09T08:03:07;28.60;92.60
12130;DHT22;6128;59.340;18.040;2023-07-09T08:05:38;28.90;92.50
12130;DHT22;6128;59.340;18.040;2023-07-09T08:08:05;29.30;92.50
12130;DHT22;6128;59.340;18.040;2023-07-09T08:10:35;29.30;92.50
12130;DHT22;6128;59.340;18.040;2023-07-09T08:13:04;28.50;92.40
12130;DHT22;6128;59.340;18.040;2023-07-09T08:15:31;27.80;92.40
12130;DHT22;6128;59.340;18.040;2023-07-09T08:18:00;27.50;92.60
12130;DHT22;6128;59.340;18.040;2023-07-09T08:20:29;27.50;92.70
12130;DHT22;6128;59.340;18.040;2023-07-09T08:22:58;27.20;92.80
12130;DHT22;6128;59.340;18.040;2023-07-09T08:25:26;26.90;92.90
12130;DHT22;6128;59.340;18.040;2023-07-09T08:27:56;27.20;93.10
12130;DHT22;6128;59.340;18.040;2023-07-09T08:30:24;27.10;93.20
12130;DHT22;6128;59.340;18.040;2023-07-09T08:32:56;27.40;93.20
12130;DHT22;6128;59.340;18.040;2023-07-09T08:35:24;27.50;93.30
12130;DHT22;6128;59.340;18.040;2023-07-09T08:37:53;27.70;93.50
12130;DHT22;6128;59.340;18.040;2023-07-09T08:40:20;28.20;93.60
12130;DHT22;6128;59.340;18.040;2023-07-09T08:42:52;28.60;93.80
12130;DHT22;6128;59.340;18.040;2023-07-09T08:45:32;27.90;94.00
12130;DHT22;6128;59.340;18.040;2023-07-09T08:48:05;27.60;94.20
12130;DHT22;6128;59.340;18.040;2023-07-09T08:50:36;27.80;94.40
12130;DHT22;6128;59.340;18.040;2023-07-09T08:53:05;27.50;94.40
12130;DHT22;6128;59.340;18.040;2023-07-09T08:55:36;28.10;94.60
12130;DHT22;6128;59.340;18.040;2023-07-09T08:58:12;28.70;94.80
12130;DHT22;6128;59.340;18.040;2023-07-09T09:00:47;29.30;94.50
12130;DHT22;6128;59.340;18.040;2023-07-09T09:03:27;29.60;94.50
12130;DHT22;6128;59.340;18.040;2023-07-09T09:05:56;30.50;94.30
12130;DHT22;6128;59.340;18.040;2023-07-09T09:08:34;31.30;94.50
12130;DHT22;6128;59.340;18.040;2023-07-09T09:11:10;31.50;94.10
12130;DHT22;6128;59.340;18.040;2023-07-09T09:13:41;30.90;93.80
12130;DHT22;6128;59.340;18.040;2023-07-09T09:16:19;29.90;93.60
12130;DHT22;6128;59.340;18.040;2023-07-09T09:18:48;29.20;93.20
12130;DHT22;6128;59.340;18.040;2023-07-09T09:21:22;29.00;93.00
12130;DHT22;6128;59.340;18.040;2023-07-09T09:23:50;29.00;92.50
12130;DHT22;6128;59.340;18.040;2023-07-09T09:26:24;29.20;92.30
12130;DHT22;6128;59.340;18.040;2023-07-09T09:28:52;30.00;92.10
12130;DHT22;6128;59.340;18.040;2023-07-09T09:31:21;30.80;92.00
12130;DHT22;6128;59.340;18.040;2023-07-09T09:33:51;29.70;91.80
12130;DHT22;6128;59.340;18.040;2023-07-09T09:36:20;28.10;91.60
12130;DHT22;6128;59.340;18.040;2023-07-09T09:38:47;27.20;91.50
12130;DHT22;6128;59.340;18.040;2023-07-09T09:41:17;26.30;91.30
12130;DHT22;6128;59.340;18.040;2023-07-09T09:43:46;25.70;91.20
12130;DHT22;6128;59.340;18.040;2023-07-09T09:46:18;25.40;91.10
12130;DHT22;6128;59.340;18.040;2023-07-09T09:48:48;25.60;91.20
12130;DHT22;6128;59.340;18.040;2023-07-09T09:51:17;25.40;91.40
12130;DHT22;6128;59.340;18.040;2023-07-09T09:53:48;25.50;91.50
12130;DHT22;6128;59.340;18.040;2023-07-09T09:56:18;25.70;91.60
12130;DHT22;6128;59.340;18.040;2023-07-09T09:58:46;25.70;91.70
12130;DHT22;6128;59.340;18.040;2023-07-09T10:01:19;25.70;91.80
12130;DHT22;6128;59.340;18.040;2023-07-09T10:03:54;25.80;91.90
12130;DHT22;6128;59.340;18.040;2023-07-09T10:06:28;25.70;92.00
12130;DHT22;6128;59.340;18.040;2023-07-09T10:09:02;25.60;92.00
12130;DHT22;6128;59.340;18.040;2023-07-09T10:11:42;25.20;92.20
12130;DHT22;6128;59.340;18.040;2023-07-09T10:14:22;25.00;92.30
12130;DHT22;6128;59.340;18.040;2023-07-09T10:16:56;25.20;92.40
12130;DHT22;6128;59.340;18.040;2023-07-09T10:19:37;24.90;92.40
12130;DHT22;6128;59.340;18.040;2023-07-09T10:22:10;24.60;92.50
12130;DHT22;6128;59.340;18.040;2023-07-09T10:24:45;24.40;92.60
12130;DHT22;6128;59.340;18.040;2023-07-09T10:27:19;24.40;92.60
12130;DHT22;6128;59.340;18.040;2023-07-09T10:30:01;24.40;92.60
12130;DHT22;6128;59.340;18.040;2023-07-09T10:32:42;24.40;92.60
12130;DHT22;6128;59.340;18.040;2023-07-09T10:35:21;24.70;92.50
12130;DHT22;6128;59.340;18.040;2023-07-09T10:38:07;25.00;92.40
12130;DHT22;6128;59.340;18.040;2023-07-09T10:40:43;25.10;92.40
12130;DHT22;6128;59.340;18.040;2023-07-09T10:43:15;25.10;92.30
12130;DHT22;6128;59.340;18.040;2023-07-09T10:45:47;25.20;92.30
12130;DHT22;6128;59.340;18.040;2023-07-09T10:48:17;25.00;92.30
12130;DHT22;6128;59.340;18.040;2023-07-09T10:50:49;24.80;92.30
12130;DHT22;6128;59.340;18.040;2023-07-09T10:53:28;24.60;92.20
12130;DHT22;6128;59.340;18.040;2023-07-09T10:56:01;24.40;92.20
12130;DHT22;6128;59.340;18.040;2023-07-09T10:58:35;24.50;92.10
12130;DHT22;6128;59.340;18.040;2023-07-09T11:01:02;24.70;92.10
12130;DHT22;6128;59.340;18.040;2023-07-09T11:03:37;25.00;92.00
12130;DHT22;6128;59.340;18.040;2023-07-09T11:06:14;24.80;92.00
12130;DHT22;6128;59.340;18.040;2023-07-09T11:08:44;24.70;91.90
12130;DHT22;6128;59.340;18.040;2023-07-09T11:11:20;24.80;91.90
12130;DHT22;6128;59.340;18.040;2023-07-09T11:13:53;24.70;91.90
12130;DHT22;6128;59.340;18.040;2023-07-09T11:16:30;24.60;91.80
12130;DHT22;6128;59.340;18.040;2023-07-09T11:19:00;24.60;91.80
12130;DHT22;6128;59.340;18.040;2023-07-09T11:21:29;24.70;91.90
12130;DHT22;6128;59.340;18.040;2023-07-09T11:23:57;24.60;91.90
12130;DHT22;6128;59.340;18.040;2023-07-09T11:26:27;24.60;92.00
12130;DHT22;6128;59.340;18.040;2023-07-09T11:29:11;24.90;92.00
12130;DHT22;6128;59.340;18.040;2023-07-09T11:31:41;24.80;92.00
12130;DHT22;6128;59.340;18.040;2023-07-09T11:34:15;25.00;92.10
12130;DHT22;6128;59.340;18.040;2023-07-09T11:36:49;25.30;92.10
12130;DHT22;6128;59.340;18.040;2023-07-09T11:39:20;25.30;92.10
12130;DHT22;6128;59.340;18.040;2023-07-09T11:41:48;25.60;92.10
12130;DHT22;6128;59.340;18.040;2023-07-09T11:44:17;25.80;92.00
12130;DHT22;6128;59.340;18.040;2023-07-09T11:46:52;25.60;92.00
12130;DHT22;6128;59.340;18.040;2023-07-09T11:49:24;25.50;91.90
12130;DHT22;6128;59.340;18.040;2023-07-09T11:51:57;25.60;91.90
12130;DHT22;6128;59.340;18.040;2023-07-09T11:54:26;25.30;91.80
12130;DHT22;6128;59.340;18.040;2023-07-09T11:56:54;25.50;91.80
12130;DHT22;6128;59.340;18.040;2023-07-09T11:59:21;25.60;91.80
12130;DHT22;6128;59.340;18.040;2023-07-09T12:01:48;25.70;91.90
12130;DHT22;6128;59.340;18.040;2023-07-09T12:04:18;25.80;92.00
12130;DHT22;6128;59.340;18.040;2023-07-09T12:06:47;25.60;92.10
12130;DHT22;6128;59.340;18.040;2023-07-09T12:09:16;25.50;92.20
12130;DHT22;6128;59.340;18.040;2023-07-09T12:11:45;25.20;92.30
12130;DHT22;6128;59.340;18.040;2023-07-09T12:14:14;24.80;92.40
12130;DHT22;6128;59.340;18.040;2023-07-09T12:16:43;24.60;92.50
12130;DHT22;6128;59.340;18.040;2023-07-09T12:19:12;24.50;92.70
12130;DHT22;6128;59.340;18.040;2023-07-09T12:21:43;24.50;92.80
12130;DHT22;6128;59.340;18.040;2023-07-09T12:24:20;24.70;92.90
12130;DHT22;6128;59.340;18.040;2023-07-09T12:26:49;25.00;92.90
12130;DHT22;6128;59.340;18.040;2023-07-09T12:29:16;25.30;92.90
12130;DHT22;6128;59.340;18.040;2023-07-09T12:31:43;25.60;92.90
12130;DHT22;6128;59.340;18.040;2023-07-09T12:34:12;25.80;92.90
12130;DHT22;6128;59.340;18.040;2023-07-09T12:36:45;25.80;92.90
12130;DHT22;6128;59.340;18.040;2023-07-09T12:39:15;25.40;93.00
12130;DHT22;6128;59.340;18.040;2023-07-09T12:41:45;25.20;93.00
12130;DHT22;6128;59.340;18.040;2023-07-09T12:44:16;25.20;93.00
12130;DHT22;6128;59.340;18.040;2023-07-09T12:46:45;24.90;93.10
12130;DHT22;6128;59.340;18.040;2023-07-09T12:49:22;24.80;93.10
12130;DHT22;6128;59.340;18.040;2023-07-09T12:51:50;24.40;93.20
12130;DHT22;6128;59.340;18.040;2023-07-09T12:54:19;24.30;93.20
12130;DHT22;6128;59.340;18.040;2023-07-09T12:56:51;24.20;93.30
12130;DHT22;6128;59.340;18.040;2023-07-09T12:59:20;24.00;93.40
12130;DHT22;6128;59.340;18.040;2023-07-09T13:01:49;24.20;93.40
12130;DHT22;6128;59.340;18.040;2023-07-09T13:04:17;24.30;93.40
12130;DHT22;6128;59.340;18.040;2023-07-09T13:06:45;24.30;93.40
12130;DHT22;6128;59.340;18.040;2023-07-09T13:09:19;24.40;93.40
12130;DHT22;6128;59.340;18.040;2023-07-09T13:11:48;24.40;93.40
12130;DHT22;6128;59.340;18.040;2023-07-09T13:14:19;24.30;93.40
12130;DHT22;6128;59.340;18.040;2023-07-09T13:16:47;24.50;93.40
12130;DHT22;6128;59.340;18.040;2023-07-09T13:19:14;24.70;93.40
12130;DHT22;6128;59.340;18.040;2023-07-09T13:21:42;24.90;93.40
12130;DHT22;6128;59.340;18.040;2023-07-09T13:24:14;25.00;93.50
12130;DHT22;6128;59.340;18.040;2023-07-09T13:26:42;25.00;93.50
12130;DHT22;6128;59.340;18.040;2023-07-09T13:29:14;25.10;93.40
12130;DHT22;6128;59.340;18.040;2023-07-09T13:31:43;25.20;93.40
12130;DHT22;6128;59.340;18.040;2023-07-09T13:34:18;25.00;93.40
12130;DHT22;6128;59.340;18.040;2023-07-09T13:36:46;25.00;93.30
12130;DHT22;6128;59.340;18.040;2023-07-09T13:39:14;24.90;93.30
12130;DHT22;6128;59.340;18.040;2023-07-09T13:41:43;24.80;93.30
12130;DHT22;6128;59.340;18.040;2023-07-09T13:44:15;24.90;93.30
12130;DHT22;6128;59.340;18.040;2023-07-09T13:46:43;24.80;93.30
12130;DHT22;6128;59.340;18.040;2023-07-09T13:49:11;25.00;93.30
12130;DHT22;6128;59.340;18.040;2023-07-09T13:51:40;25.00;93.30
12130;DHT22;6128;59.340;18.040;2023-07-09T13:54:15;25.10;93.30
12130;DHT22;6128;59.340;18.040;2023-07-09T13:56:43;25.10;93.40
12130;DHT22;6128;59.340;18.040;2023-07-09T13:59:15;25.10;93.60
12130;DHT22;6128;59.340;18.040;2023-07-09T14:01:43;24.90;93.90
12130;DHT22;6128;59.340;18.040;2023-07-09T14:04:12;24.80;94.20
12130;DHT22;6128;59.340;18.040;2023-07-09T14:06:39;24.80;94.50
12130;DHT22;6128;59.340;18.040;2023-07-09T14:09:08;25.00;94.80
12130;DHT22;6128;59.340;18.040;2023-07-09T14:11:37;24.90;95.00
12130;DHT22;6128;59.340;18.040;2023-07-09T14:14:16;24.60;95.20
12130;DHT22;6128;59.340;18.040;2023-07-09T14:16:44;24.50;95.20
12130;DHT22;6128;59.340;18.040;2023-07-09T14:19:14;24.50;95.30
12130;DHT22;6128;59.340;18.040;2023-07-09T14:21:41;24.40;95.50
12130;DHT22;6128;59.340;18.040;2023-07-09T14:24:17;24.40;95.60
12130;DHT22;6128;59.340;18.040;2023-07-09T14:26:45;24.40;95.70
12130;DHT22;6128;59.340;18.040;2023-07-09T14:29:13;24.50;95.70
12130;DHT22;6128;59.340;18.040;2023-07-09T14:31:42;24.40;95.80
12130;DHT22;6128;59.340;18.040;2023-07-09T14:34:22;24.40;95.90
12130;DHT22;6128;59.340;18.040;2023-07-09T14:36:51;24.40;95.90
12130;DHT22;6128;59.340;18.040;2023-07-09T14:39:18;24.40;96.00
12130;DHT22;6128;59.340;18.040;2023-07-09T14:41:46;24.60;96.00
12130;DHT22;6128;59.340;18.040;2023-07-09T14:44:31;24.60;96.00
12130;DHT22;6128;59.340;18.040;2023-07-09T14:47:00;24.70;96.10
12130;DHT22;6128;59.340;18.040;2023-07-09T14:49:28;24.50;96.10
12130;DHT22;6128;59.340;18.040;2023-07-09T14:51:55;24.40;96.00
12130;DHT22;6128;59.340;18.040;2023-07-09T14:54:25;24.40;96.00
12130;DHT22;6128;59.340;18.040;2023-07-09T14:56:53;24.30;96.10
12130;DHT22;6128;59.340;18.040;2023-07-09T14:59:21;24.10;96.10
12130;DHT22;6128;59.340;18.040;2023-07-09T15:01:48;24.00;96.10
12130;DHT22;6128;59.340;18.040;2023-07-09T15:04:27;23.90;96.10
12130;DHT22;6128;59.340;18.040;2023-07-09T15:06:55;23.80;96.20
12130;DHT22;6128;59.340;18.040;2023-07-09T15:09:24;23.80;96.30
12130;DHT22;6128;59.340;18.040;2023-07-09T15:11:53;23.80;96.30
12130;DHT22;6128;59.340;18.040;2023-07-09T15:14:21;23.80;96.30
12130;DHT22;6128;59.340;18.040;2023-07-09T15:16:48;23.80;96.40
12130;DHT22;6128;59.340;18.040;2023-07-09T15:19:17;23.90;96.40
12130;DHT22;6128;59.340;18.040;2023-07-09T15:21:47;24.00;96.40
12130;DHT22;6128;59.340;18.040;2023-07-09T15:24:21;24.00;96.40
12130;DHT22;6128;59.340;18.040;2023-07-09T15:26:51;24.00;96.50
12130;DHT22;6128;59.340;18.040;2023-07-09T15:29:19;24.00;96.50
12130;DHT22;6128;59.340;18.040;2023-07-09T15:31:47;24.10;96.50
12130;DHT22;6128;59.340;18.040;2023-07-09T15:34:14;24.20;96.50
12130;DHT22;6128;59.340;18.040;2023-07-09T15:36:43;24.40;96.50
12130;DHT22;6128;59.340;18.040;2023-07-09T15:39:12;24.40;96.40
12130;DHT22;6128;59.340;18.040;2023-07-09T15:41:40;24.40;96.40
12130;DHT22;6128;59.340;18.040;2023-07-09T15:44:10;24.40;96.30
12130;DHT22;6128;59.340;18.040;2023-07-09T15:46:38;24.40;96.30
12130;DHT22;6128;59.340;18.040;2023-07-09T15:49:06;24.30;96.30